Time;durP1;ratioP1;P1;durP2;ratioP2;P2;SDS_P1;SDS_P2;PMS_P1;PMS_P2;Temp;Humidity;BMP_temperature;BMP_pressure;BME280_temperature;BME280_humidity;BME280_pressure;Samples;Min_cycle;Max_cycle;Signal;HPM_P1;HPM_P2
2021/05/05 00:00:14;;;;;;;2.08;0.80;;;7.60;99.90;;;;;;4989838;28;20227;-73
2021/05/05 00:02:41;;;;;;;2.60;1.10;;;7.60;99.90;;;;;;4987641;28;20245;-73
2021/05/05 00:05:09;;;;;;;1.50;1.00;;;7.50;99.90;;;;;;4989330;28;20218;-73
2021/05/05 00:07:36;;;;;;;2.03;1.05;;;7.50;99.90;;;;;;4986561;28;20258;-73
2021/05/05 00:10:03;;;;;;;1.63;0.95;;;7.50;99.90;;;;;;4987961;28;20230;-73
2021/05/05 00:12:30;;;;;;;1.52;0.80;;;7.50;99.90;;;;;;4988676;28;20207;-73
2021/05/05 00:14:57;;;;;;;0.90;0.80;;;7.50;99.90;;;;;;4988926;28;20207;-73
2021/05/05 00:17:23;;;;;;;1.83;0.80;;;7.40;99.90;;;;;;5075233;23;20204;-73
2021/05/05 00:19:49;;;;;;;1.58;0.90;;;7.50;99.90;;;;;;4984121;28;20234;-73
2021/05/05 00:22:16;;;;;;;1.00;0.90;;;7.40;99.90;;;;;;4969941;28;20200;-73
2021/05/05 00:24:42;;;;;;;1.85;0.93;;;7.40;99.90;;;;;;4968688;28;20254;-73
2021/05/05 00:27:08;;;;;;;5.97;2.10;;;7.40;99.90;;;;;;4968896;28;20235;-72
2021/05/05 00:29:35;;;;;;;1.10;0.75;;;7.40;99.90;;;;;;4968868;28;20299;-73
2021/05/05 00:32:02;;;;;;;2.08;0.90;;;7.40;99.90;;;;;;4970113;28;20211;-72
2021/05/05 00:34:28;;;;;;;3.65;1.33;;;7.30;99.90;;;;;;4970096;28;20677;-73
2021/05/05 00:36:54;;;;;;;0.90;0.80;;;7.30;99.90;;;;;;4969743;28;20280;-71
2021/05/05 00:39:21;;;;;;;0.90;0.80;;;7.30;99.90;;;;;;4969416;28;20228;-71
2021/05/05 00:41:47;;;;;;;1.00;0.90;;;7.30;99.90;;;;;;4969767;28;20204;-71
2021/05/05 00:44:13;;;;;;;1.00;0.70;;;7.20;99.90;;;;;;4969958;28;20211;-71
2021/05/05 00:46:40;;;;;;;1.92;1.10;;;7.10;99.90;;;;;;4973192;28;20230;-71
2021/05/05 00:49:07;;;;;;;1.75;1.13;;;7.10;99.90;;;;;;4972709;28;20227;-71
2021/05/05 00:51:33;;;;;;;2.08;1.10;;;7.10;99.90;;;;;;4973518;28;20203;-71
2021/05/05 00:53:59;;;;;;;1.95;1.00;;;7.00;99.90;;;;;;4973562;28;20297;-71
2021/05/05 00:56:25;;;;;;;3.40;1.70;;;7.00;99.90;;;;;;4971746;28;20819;-72
2021/05/05 00:58:52;;;;;;;1.42;1.05;;;6.90;99.90;;;;;;4971022;28;20683;-72
2021/05/05 01:01:18;;;;;;;2.60;1.40;;;6.90;99.90;;;;;;4971845;28;20204;-72
2021/05/05 01:03:44;;;;;;;1.90;1.02;;;6.90;99.90;;;;;;4971624;28;20207;-72
2021/05/05 01:06:11;;;;;;;1.25;1.00;;;6.90;99.90;;;;;;4971718;28;20223;-71
2021/05/05 01:08:38;;;;;;;2.22;1.17;;;6.80;99.90;;;;;;4970078;28;20195;-72
2021/05/05 01:11:04;;;;;;;1.40;1.10;;;6.80;99.90;;;;;;4972497;28;20294;-71
2021/05/05 01:13:30;;;;;;;1.85;1.00;;;6.90;99.90;;;;;;4973025;28;20688;-71
2021/05/05 01:15:57;;;;;;;1.90;1.20;;;6.90;99.90;;;;;;4972568;28;20254;-71
2021/05/05 01:18:23;;;;;;;2.15;1.50;;;6.80;99.90;;;;;;4972311;28;20216;-71
2021/05/05 01:20:49;;;;;;;1.20;0.88;;;6.90;99.90;;;;;;4972674;28;20619;-72
2021/05/05 01:23:17;;;;;;;1.33;1.13;;;6.90;99.90;;;;;;4973027;28;20254;-71
2021/05/05 01:25:43;;;;;;;1.55;1.20;;;6.80;99.90;;;;;;4972754;28;20207;-72
2021/05/05 01:28:09;;;;;;;2.85;1.00;;;6.80;99.90;;;;;;4972016;28;20204;-72
2021/05/05 01:30:35;;;;;;;2.90;1.20;;;6.80;99.90;;;;;;4972566;28;20224;-71
2021/05/05 01:33:01;;;;;;;2.65;1.40;;;6.70;99.90;;;;;;4972574;28;20203;-71
2021/05/05 01:35:28;;;;;;;1.25;1.02;;;6.80;99.90;;;;;;4972590;28;20231;-71
2021/05/05 01:37:54;;;;;;;1.20;0.90;;;6.70;99.90;;;;;;4971750;28;20577;-71
2021/05/05 01:40:26;;;;;;;1.00;0.90;;;6.60;99.90;;;;;;4972320;28;20236;-71
2021/05/05 01:42:52;;;;;;;1.90;0.90;;;6.60;99.90;;;;;;4972171;28;20222;-71
2021/05/05 01:45:19;;;;;;;2.42;1.10;;;6.50;99.90;;;;;;4972277;28;20208;-71
2021/05/05 01:47:45;;;;;;;2.75;1.20;;;6.50;99.90;;;;;;4971578;28;20236;-71
2021/05/05 01:50:12;;;;;;;2.03;1.20;;;6.50;99.90;;;;;;4972186;28;20719;-71
2021/05/05 01:52:39;;;;;;;1.40;1.20;;;6.60;99.90;;;;;;4972143;28;20577;-71
2021/05/05 01:55:07;;;;;;;4.18;1.10;;;6.60;99.90;;;;;;4971973;28;20207;-71
2021/05/05 01:57:38;;;;;;;1.17;1.00;;;6.60;99.90;;;;;;4971808;28;20204;-72
2021/05/05 02:00:11;;;;;;;2.35;1.20;;;6.60;99.90;;;;;;4971761;28;20273;-72
2021/05/05 02:02:37;;;;;;;1.23;1.00;;;6.50;99.90;;;;;;4971886;28;20676;-71
2021/05/05 02:05:05;;;;;;;1.00;0.85;;;6.50;99.90;;;;;;4972289;28;20215;-71
2021/05/05 02:07:31;;;;;;;1.38;1.13;;;6.50;99.90;;;;;;4971683;28;20232;-71
2021/05/05 02:09:57;;;;;;;2.33;1.10;;;6.40;99.90;;;;;;4971119;28;20219;-71
2021/05/05 02:12:24;;;;;;;3.17;1.20;;;6.40;99.90;;;;;;4971899;28;20402;-71
2021/05/05 02:14:51;;;;;;;3.20;1.00;;;6.40;99.90;;;;;;4971499;28;20226;-71
2021/05/05 02:17:17;;;;;;;1.45;1.02;;;6.30;99.90;;;;;;4971817;28;20196;-71
2021/05/05 02:19:44;;;;;;;1.10;0.93;;;6.40;99.90;;;;;;4970707;28;20297;-71
2021/05/05 02:22:10;;;;;;;1.20;0.93;;;6.40;99.90;;;;;;4971750;28;20266;-71
2021/05/05 02:24:37;;;;;;;1.35;1.02;;;6.40;99.90;;;;;;4971929;28;20207;-72
2021/05/05 02:27:03;;;;;;;1.30;1.10;;;6.30;99.90;;;;;;4971769;28;20219;-71
2021/05/05 02:29:30;;;;;;;1.20;1.10;;;6.30;99.90;;;;;;4971267;28;20235;-72
2021/05/05 02:31:57;;;;;;;2.00;1.30;;;6.30;99.90;;;;;;4971452;28;20608;-71
2021/05/05 02:34:23;;;;;;;1.23;1.10;;;6.40;99.90;;;;;;4971640;28;20208;-71
2021/05/05 02:36:50;;;;;;;2.25;1.05;;;6.40;99.90;;;;;;4970623;28;20210;-71
2021/05/05 02:39:18;;;;;;;3.10;1.15;;;6.40;99.90;;;;;;4969154;28;20239;-71
2021/05/05 02:41:45;;;;;;;2.42;1.10;;;6.40;99.90;;;;;;4967821;28;20208;-71
2021/05/05 02:44:11;;;;;;;1.98;1.00;;;6.30;99.90;;;;;;4970530;28;20672;-71
2021/05/05 02:46:38;;;;;;;2.08;1.17;;;6.20;99.90;;;;;;4970442;28;20243;-71
2021/05/05 02:49:05;;;;;;;1.83;1.00;;;6.20;99.90;;;;;;4969590;28;20266;-71
2021/05/05 02:51:32;;;;;;;2.22;1.10;;;6.10;99.90;;;;;;4970602;28;20219;-71
2021/05/05 02:53:58;;;;;;;1.30;1.08;;;6.20;99.90;;;;;;4970320;28;20204;-71
2021/05/05 02:56:24;;;;;;;1.33;1.13;;;6.20;99.90;;;;;;4970388;28;20222;-71
2021/05/05 02:58:51;;;;;;;1.60;1.00;;;6.30;99.90;;;;;;4969414;28;20207;-71
2021/05/05 03:01:17;;;;;;;1.50;1.10;;;6.30;99.90;;;;;;4970537;28;20216;-71
2021/05/05 03:03:43;;;;;;;4.30;1.23;;;6.30;99.90;;;;;;4970062;28;20204;-71
2021/05/05 03:06:10;;;;;;;1.10;0.90;;;6.30;99.90;;;;;;4970186;28;20574;-71
2021/05/05 03:08:37;;;;;;;2.72;1.23;;;6.30;99.90;;;;;;4969534;28;20212;-71
2021/05/05 03:11:04;;;;;;;2.70;1.52;;;6.20;99.90;;;;;;4969790;28;20232;-71
2021/05/05 03:13:30;;;;;;;1.85;1.20;;;6.20;99.90;;;;;;4970381;28;20679;-71
2021/05/05 03:15:57;;;;;;;1.60;1.20;;;6.20;99.90;;;;;;4970055;28;20675;-71
2021/05/05 03:18:24;;;;;;;1.30;0.90;;;6.20;99.90;;;;;;4969723;28;20212;-71
2021/05/05 03:20:50;;;;;;;3.70;1.30;;;6.10;99.90;;;;;;4969921;28;20594;-71
2021/05/05 03:23:17;;;;;;;2.00;1.20;;;6.20;99.90;;;;;;4970330;28;20211;-71
2021/05/05 03:25:44;;;;;;;1.33;1.08;;;6.20;99.90;;;;;;4969691;28;20207;-71
2021/05/05 03:28:10;;;;;;;1.85;1.00;;;6.20;99.90;;;;;;4969695;28;20204;-71
2021/05/05 03:30:36;;;;;;;1.30;1.00;;;6.20;99.90;;;;;;4970138;28;20228;-72
2021/05/05 03:33:03;;;;;;;1.25;1.15;;;6.10;99.90;;;;;;4970080;28;20208;-72
2021/05/05 03:35:29;;;;;;;1.30;1.02;;;6.10;99.90;;;;;;4969891;28;20207;-72
2021/05/05 03:37:56;;;;;;;1.95;1.23;;;6.20;99.90;;;;;;4969371;28;20259;-71
2021/05/05 03:40:23;;;;;;;2.03;1.40;;;6.20;99.90;;;;;;4969862;28;20266;-72
2021/05/05 03:42:49;;;;;;;1.88;1.05;;;6.10;99.90;;;;;;4969941;28;20258;-72
2021/05/05 03:45:16;;;;;;;3.03;1.20;;;6.20;99.90;;;;;;4970509;28;20203;-72
2021/05/05 03:47:42;;;;;;;1.83;1.13;;;6.20;99.90;;;;;;4970131;28;20993;-72
2021/05/05 03:50:10;;;;;;;1.52;0.90;;;6.20;99.90;;;;;;4970146;28;20228;-72
2021/05/05 03:52:36;;;;;;;2.78;1.65;;;6.20;99.90;;;;;;4970436;28;20584;-72
2021/05/05 03:55:04;;;;;;;2.85;1.30;;;6.20;99.90;;;;;;4970410;28;20278;-73
2021/05/05 03:57:31;;;;;;;2.67;1.55;;;6.20;99.90;;;;;;4971091;28;20589;-73
2021/05/05 03:59:57;;;;;;;2.40;1.33;;;6.20;99.90;;;;;;4970487;28;20228;-73
2021/05/05 04:02:24;;;;;;;3.40;1.35;;;6.30;99.90;;;;;;4970443;28;20208;-73
2021/05/05 04:04:50;;;;;;;1.92;1.15;;;6.30;99.90;;;;;;4955952;28;20208;-73
2021/05/05 04:07:16;;;;;;;1.90;1.40;;;6.30;99.90;;;;;;4950925;28;20750;-74
2021/05/05 04:09:43;;;;;;;1.33;1.05;;;6.30;99.90;;;;;;4950074;28;20228;-73
2021/05/05 04:12:11;;;;;;;1.58;1.05;;;6.30;99.90;;;;;;4950507;28;20251;-74
2021/05/05 04:14:38;;;;;;;2.60;1.15;;;6.40;99.90;;;;;;4950064;28;20223;-73
2021/05/05 04:17:05;;;;;;;1.30;1.00;;;6.40;99.90;;;;;;4950960;28;20201;-74
2021/05/05 04:19:33;;;;;;;1.98;1.23;;;6.40;99.90;;;;;;4950562;28;20236;-73
2021/05/05 04:22:00;;;;;;;1.52;1.40;;;6.40;99.90;;;;;;4955082;28;20262;-74
2021/05/05 04:24:26;;;;;;;1.63;1.00;;;6.40;99.90;;;;;;4955072;28;20204;-71
2021/05/05 04:26:52;;;;;;;3.67;1.30;;;6.40;99.90;;;;;;4970186;28;20226;-73
2021/05/05 04:29:19;;;;;;;1.05;0.95;;;6.40;99.90;;;;;;4973512;28;20235;-72
2021/05/05 04:31:47;;;;;;;2.10;1.10;;;6.40;99.90;;;;;;4973873;28;20354;-71
2021/05/05 04:34:14;;;;;;;2.45;1.27;;;6.40;99.90;;;;;;4973656;28;20208;-73
2021/05/05 04:36:40;;;;;;;1.33;0.98;;;6.40;99.90;;;;;;4973580;28;20204;-72
2021/05/05 04:39:07;;;;;;;1.98;1.00;;;6.40;99.90;;;;;;4972802;28;20224;-73
2021/05/05 04:41:34;;;;;;;1.30;1.10;;;6.40;99.90;;;;;;4973703;28;20987;-72
2021/05/05 04:44:01;;;;;;;2.28;1.20;;;6.40;99.90;;;;;;4973272;28;20211;-71
2021/05/05 04:46:27;;;;;;;2.22;1.20;;;6.40;99.90;;;;;;4973375;28;20231;-73
2021/05/05 04:48:54;;;;;;;1.35;1.25;;;6.40;99.90;;;;;;4972783;28;20208;-73
2021/05/05 04:51:20;;;;;;;1.90;1.10;;;6.40;99.90;;;;;;4973484;28;20216;-71
2021/05/05 04:53:47;;;;;;;1.20;1.08;;;6.40;99.90;;;;;;4973602;28;20204;-72
2021/05/05 04:56:13;;;;;;;1.55;0.98;;;6.40;99.90;;;;;;4973658;28;20204;-73
2021/05/05 04:58:39;;;;;;;4.28;1.02;;;6.30;99.90;;;;;;4972738;28;20643;-73
2021/05/05 05:01:05;;;;;;;1.27;1.15;;;6.30;99.90;;;;;;4973197;28;20290;-72
2021/05/05 05:03:31;;;;;;;1.60;1.35;;;6.20;99.90;;;;;;4973209;28;20683;-72
2021/05/05 05:05:59;;;;;;;1.10;0.80;;;6.20;99.90;;;;;;4973160;28;20219;-72
2021/05/05 05:08:25;;;;;;;2.00;1.00;;;6.20;99.90;;;;;;4972450;28;20212;-72
2021/05/05 05:10:51;;;;;;;3.20;1.17;;;6.20;99.90;;;;;;4972825;28;20223;-72
2021/05/05 05:13:17;;;;;;;1.58;1.10;;;6.10;99.90;;;;;;4972989;28;20208;-73
2021/05/05 05:15:43;;;;;;;3.47;1.65;;;6.20;99.90;;;;;;4972879;28;20212;-72
2021/05/05 05:18:10;;;;;;;1.90;1.15;;;6.20;99.90;;;;;;5048660;22;20606;-69
2021/05/05 05:20:36;;;;;;;3.95;1.10;;;6.10;99.90;;;;;;5026746;28;20266;-68
2021/05/05 05:23:03;;;;;;;2.03;1.20;;;6.10;99.90;;;;;;5030526;28;20205;-68
2021/05/05 05:25:29;;;;;;;2.00;0.93;;;6.10;99.90;;;;;;5030785;28;20521;-67
2021/05/05 05:27:56;;;;;;;1.80;1.00;;;6.20;99.90;;;;;;5030945;28;20537;-68
2021/05/05 05:30:23;;;;;;;1.10;0.90;;;6.20;99.90;;;;;;5030587;28;20217;-69
2021/05/05 05:32:49;;;;;;;1.10;0.98;;;6.30;99.90;;;;;;5030972;28;20221;-68
2021/05/05 05:35:16;;;;;;;2.00;1.00;;;6.30;99.90;;;;;;5030862;28;20202;-69
2021/05/05 05:37:42;;;;;;;1.83;1.00;;;6.30;99.90;;;;;;5030399;28;20661;-69
2021/05/05 05:40:11;;;;;;;2.00;1.10;;;6.30;99.90;;;;;;5030987;28;20221;-68
2021/05/05 05:42:37;;;;;;;1.83;1.30;;;6.30;99.90;;;;;;5030883;28;20209;-67
2021/05/05 05:45:05;;;;;;;1.25;1.15;;;6.30;99.90;;;;;;5031001;28;20570;-68
2021/05/05 05:47:31;;;;;;;1.40;0.98;;;6.40;99.90;;;;;;5030665;28;20241;-68
2021/05/05 05:49:57;;;;;;;5.78;1.15;;;6.50;99.90;;;;;;5030356;28;20230;-68
2021/05/05 05:52:24;;;;;;;2.10;1.10;;;6.40;99.90;;;;;;5030868;28;20205;-68
2021/05/05 05:54:50;;;;;;;2.35;1.27;;;6.50;99.90;;;;;;5030723;28;20221;-69
2021/05/05 05:57:17;;;;;;;1.70;1.60;;;6.60;99.90;;;;;;5030558;28;20555;-70
2021/05/05 05:59:43;;;;;;;1.50;1.10;;;6.70;99.90;;;;;;5030137;28;20598;-69
2021/05/05 06:02:10;;;;;;;1.20;1.10;;;6.70;99.90;;;;;;5030914;28;20209;-69
2021/05/05 06:04:37;;;;;;;2.88;1.35;;;6.70;99.90;;;;;;5030504;28;20201;-69
2021/05/05 06:07:03;;;;;;;2.08;1.40;;;6.70;99.90;;;;;;5030810;28;20226;-69
2021/05/05 06:09:29;;;;;;;3.25;1.42;;;6.70;99.90;;;;;;5029855;28;20226;-69
2021/05/05 06:11:56;;;;;;;2.90;1.42;;;6.80;99.90;;;;;;5030559;28;20299;-69
2021/05/05 06:14:23;;;;;;;2.45;1.50;;;6.80;99.90;;;;;;5030224;28;20201;-68
2021/05/05 06:16:49;;;;;;;2.97;1.40;;;6.90;99.90;;;;;;5030235;28;20197;-69
2021/05/05 06:19:15;;;;;;;2.63;1.48;;;6.80;99.90;;;;;;5029652;28;20241;-69
2021/05/05 06:21:41;;;;;;;2.70;1.30;;;6.80;99.90;;;;;;5029218;28;20209;-69
2021/05/05 06:24:08;;;;;;;5.82;1.55;;;6.80;99.90;;;;;;5030869;28;20978;-69
2021/05/05 06:26:34;;;;;;;2.30;1.80;;;6.80;99.90;;;;;;5030539;28;20282;-69
2021/05/05 06:29:01;;;;;;;4.75;1.80;;;6.80;99.90;;;;;;5030060;28;20568;-70
2021/05/05 06:31:28;;;;;;;3.88;1.70;;;6.80;99.90;;;;;;5030517;28;20222;-69
2021/05/05 06:33:54;;;;;;;3.05;1.70;;;6.80;99.90;;;;;;5030025;28;20210;-69
2021/05/05 06:36:20;;;;;;;2.67;1.60;;;6.80;99.90;;;;;;5030461;28;20260;-68
2021/05/05 06:38:46;;;;;;;6.28;1.85;;;6.70;99.90;;;;;;5029488;28;20212;-69
2021/05/05 06:41:12;;;;;;;2.65;1.27;;;6.70;99.90;;;;;;5030367;28;20205;-69
2021/05/05 06:43:39;;;;;;;2.45;1.55;;;6.70;99.90;;;;;;5029278;28;20209;-69
2021/05/05 06:46:05;;;;;;;2.75;1.70;;;6.80;99.90;;;;;;5030425;28;20198;-69
2021/05/05 06:48:32;;;;;;;7.40;1.95;;;6.90;99.90;;;;;;5029003;28;20733;-69
2021/05/05 06:50:58;;;;;;;3.28;1.75;;;6.90;99.90;;;;;;5029679;28;20629;-69
2021/05/05 06:53:25;;;;;;;4.95;2.10;;;7.00;99.90;;;;;;5018772;28;20740;-69
2021/05/05 06:55:51;;;;;;;3.88;1.48;;;7.10;99.90;;;;;;5009787;28;20202;-69
2021/05/05 06:58:19;;;;;;;5.60;1.67;;;7.30;99.90;;;;;;5009809;28;20244;-69
2021/05/05 07:00:45;;;;;;;3.28;1.60;;;7.40;99.90;;;;;;5009554;28;20257;-69
2021/05/05 07:03:12;;;;;;;2.15;1.50;;;7.60;99.90;;;;;;5010647;28;20218;-69
2021/05/05 07:05:39;;;;;;;4.22;1.60;;;7.70;99.90;;;;;;5009806;28;20206;-69
2021/05/05 07:08:05;;;;;;;4.38;2.00;;;7.80;99.90;;;;;;5009402;28;20281;-69
2021/05/05 07:10:32;;;;;;;4.13;1.58;;;8.00;99.90;;;;;;5009595;28;20288;-68
2021/05/05 07:12:58;;;;;;;2.65;1.70;;;8.10;99.90;;;;;;5009615;28;20216;-69
2021/05/05 07:15:24;;;;;;;4.57;1.95;;;8.30;99.90;;;;;;5009903;28;20203;-69
2021/05/05 07:17:52;;;;;;;5.85;2.10;;;8.40;99.90;;;;;;5009094;28;20693;-69
2021/05/05 07:20:18;;;;;;;2.42;1.90;;;8.50;99.90;;;;;;5009768;28;20236;-68
2021/05/05 07:22:45;;;;;;;3.58;2.08;;;8.50;99.90;;;;;;5003521;28;20194;-69
2021/05/05 07:25:12;;;;;;;4.72;1.67;;;8.40;99.90;;;;;;5009659;28;20272;-69
2021/05/05 07:27:38;;;;;;;5.60;3.08;;;8.50;99.90;;;;;;5009499;28;20225;-70
2021/05/05 07:30:06;;;;;;;8.30;1.88;;;8.80;99.90;;;;;;5009665;28;20276;-69
2021/05/05 07:32:32;;;;;;;5.57;2.45;;;9.00;99.90;;;;;;5009959;28;20272;-69
2021/05/05 07:35:00;;;;;;;2.58;1.75;;;9.10;99.90;;;;;;5009597;28;20210;-69
2021/05/05 07:37:35;;;;;;;2.60;1.58;;;9.00;99.90;;;;;;5009587;28;20198;-68
2021/05/05 07:40:26;;;;;;;3.17;1.30;;;8.90;99.90;;;;;;5009311;28;20268;-68
2021/05/05 07:45:59;;;;;;;3.28;1.42;;;8.60;99.90;;;;;;4957325;28;20215;-69
2021/05/05 07:48:28;;;;;;;4.20;1.70;;;8.60;99.90;;;;;;4964660;28;20722;-70
2021/05/05 07:50:55;;;;;;;2.63;1.45;;;8.70;99.90;;;;;;4987230;28;20249;-69
2021/05/05 07:53:22;;;;;;;2.38;1.67;;;8.80;99.90;;;;;;5003501;28;20202;-68
2021/05/05 07:55:51;;;;;;;3.22;1.70;;;8.70;99.90;;;;;;5013216;28;20251;-69
2021/05/05 07:58:17;;;;;;;3.75;2.03;;;8.60;99.90;;;;;;5029444;28;21034;-69
2021/05/05 08:00:44;;;;;;;2.50;1.67;;;8.60;99.90;;;;;;5029181;28;20221;-69
2021/05/05 08:03:11;;;;;;;3.08;1.58;;;8.60;99.90;;;;;;5029781;28;20212;-69
2021/05/05 08:05:38;;;;;;;2.30;1.73;;;8.70;99.70;;;;;;5029617;28;20289;-68
2021/05/05 08:08:04;;;;;;;3.38;1.67;;;8.80;99.90;;;;;;5026919;28;20230;-69
2021/05/05 08:10:31;;;;;;;4.75;2.38;;;8.70;98.50;;;;;;5032604;28;20259;-69
2021/05/05 08:12:58;;;;;;;3.40;1.50;;;8.90;99.40;;;;;;5032196;28;20294;-69
2021/05/05 08:15:27;;;;;;;4.30;2.15;;;9.10;98.90;;;;;;5031319;28;20202;-70
2021/05/05 08:17:53;;;;;;;3.30;1.77;;;9.30;98.70;;;;;;5031965;28;20213;-69
2021/05/05 08:20:19;;;;;;;6.68;1.58;;;9.50;98.40;;;;;;5032586;28;20226;-69
2021/05/05 08:22:45;;;;;;;3.25;1.88;;;9.60;97.80;;;;;;5032627;28;20561;-70
2021/05/05 08:25:12;;;;;;;3.80;1.85;;;9.50;99.20;;;;;;5033026;28;20201;-69
2021/05/05 08:27:38;;;;;;;3.10;1.80;;;9.50;99.10;;;;;;5031797;28;20835;-69
2021/05/05 08:30:07;;;;;;;2.13;1.25;;;9.70;97.90;;;;;;5032125;28;20301;-69
2021/05/05 08:32:33;;;;;;;2.60;1.52;;;10.00;98.50;;;;;;5010977;28;20211;-69
2021/05/05 08:35:00;;;;;;;3.70;2.05;;;10.30;98.00;;;;;;5005628;28;20207;-66
2021/05/05 08:37:26;;;;;;;3.72;2.05;;;10.60;97.80;;;;;;5010658;28;20267;-68
2021/05/05 08:39:53;;;;;;;4.63;1.60;;;10.60;97.60;;;;;;5009488;28;20230;-67
2021/05/05 08:42:22;;;;;;;3.20;1.75;;;10.50;96.50;;;;;;5011769;28;20927;-67
2021/05/05 08:44:49;;;;;;;2.75;1.70;;;10.10;95.00;;;;;;5012193;28;20244;-68
2021/05/05 08:47:18;;;;;;;2.95;1.60;;;9.80;96.60;;;;;;5012734;28;20686;-69
2021/05/05 08:49:45;;;;;;;2.95;1.67;;;9.60;95.90;;;;;;5009695;28;20352;-67
2021/05/05 08:52:11;;;;;;;3.47;1.60;;;9.60;97.20;;;;;;5005015;28;20198;-68
2021/05/05 08:54:38;;;;;;;4.20;2.35;;;9.90;97.80;;;;;;5009489;28;20207;-68
2021/05/05 08:57:05;;;;;;;2.70;2.03;;;10.30;95.70;;;;;;5009116;28;20666;-68
2021/05/05 08:59:36;;;;;;;4.78;1.80;;;10.50;95.40;;;;;;5006768;28;20214;-68
2021/05/05 09:02:04;;;;;;;2.35;1.27;;;10.70;95.20;;;;;;5005516;28;20269;-68
2021/05/05 09:04:33;;;;;;;5.70;1.92;;;11.00;94.70;;;;;;5009877;28;20230;-69
2021/05/05 09:07:01;;;;;;;2.47;1.98;;;11.30;94.70;;;;;;5004416;28;20264;-69
2021/05/05 09:09:37;;;;;;;2.10;1.30;;;11.40;95.20;;;;;;5006617;28;20223;-68
2021/05/05 09:12:18;;;;;;;3.22;1.70;;;11.70;92.70;;;;;;5006792;28;20205;-68
2021/05/05 09:14:56;;;;;;;5.43;2.00;;;12.00;92.00;;;;;;5002875;28;20217;-69
2021/05/05 09:17:28;;;;;;;2.85;1.60;;;12.40;90.60;;;;;;5002490;28;20198;-68
2021/05/05 09:20:22;;;;;;;3.22;1.30;;;12.50;90.30;;;;;;5008170;28;20709;-68
2021/05/05 09:22:55;;;;;;;4.45;1.83;;;12.20;90.00;;;;;;5004556;28;20211;-67
2021/05/05 09:25:24;;;;;;;2.95;1.85;;;12.60;90.00;;;;;;4997987;28;20681;-69
2021/05/05 09:28:11;;;;;;;3.88;1.65;;;12.40;90.40;;;;;;5008472;28;20229;-70
2021/05/05 09:30:42;;;;;;;2.80;1.95;;;11.80;90.90;;;;;;5011120;28;20237;-68
2021/05/05 09:33:08;;;;;;;2.63;2.10;;;11.40;91.40;;;;;;5007333;28;20225;-70
2021/05/05 09:35:37;;;;;;;9.43;2.70;;;11.20;91.80;;;;;;5009776;28;20296;-69
2021/05/05 09:38:06;;;;;;;3.70;1.60;;;11.30;91.50;;;;;;5010812;28;20741;-67
2021/05/05 09:40:34;;;;;;;5.13;1.95;;;11.30;89.20;;;;;;5016403;28;20237;-68
2021/05/05 09:43:16;;;;;;;2.85;1.70;;;11.60;90.00;;;;;;5019608;28;20971;-68
2021/05/05 09:45:46;;;;;;;3.20;1.50;;;11.70;91.30;;;;;;5009816;28;20206;-69
2021/05/05 09:48:13;;;;;;;3.88;1.80;;;12.10;90.20;;;;;;5012739;28;20226;-69
2021/05/05 09:50:42;;;;;;;2.80;1.55;;;12.50;88.40;;;;;;5015092;28;20230;-68
2021/05/05 09:53:25;;;;;;;5.32;1.80;;;12.90;86.00;;;;;;5007116;28;20308;-69
2021/05/05 09:56:13;;;;;;;6.33;1.53;;;13.30;85.00;;;;;;5007112;28;20256;-70
2021/05/05 09:59:02;;;;;;;2.67;1.60;;;13.80;81.70;;;;;;5010377;28;20457;-69
2021/05/05 10:01:35;;;;;;;2.13;1.50;;;13.80;78.50;;;;;;5016907;28;20900;-68
2021/05/05 10:04:04;;;;;;;2.30;1.43;;;14.10;78.60;;;;;;5019302;28;20476;-69
2021/05/05 10:06:40;;;;;;;6.35;1.70;;;14.40;76.40;;;;;;5011702;28;20461;-68
2021/05/05 10:09:11;;;;;;;2.13;1.40;;;13.50;75.40;;;;;;5021058;28;20518;-68
2021/05/05 10:11:39;;;;;;;1.60;1.40;;;13.10;77.80;;;;;;5012684;28;20466;-68
2021/05/05 10:14:10;;;;;;;2.53;1.50;;;13.10;77.60;;;;;;5019049;28;20469;-68
2021/05/05 10:16:40;;;;;;;2.77;1.50;;;13.40;78.50;;;;;;5016775;28;20516;-67
2021/05/05 10:19:08;;;;;;;2.57;1.77;;;13.40;79.00;;;;;;5023161;28;20507;-68
2021/05/05 10:21:42;;;;;;;2.50;1.67;;;13.70;80.50;;;;;;5013863;28;20446;-68
2021/05/05 10:24:13;;;;;;;3.63;1.90;;;14.30;79.40;;;;;;5010588;28;20465;-68
2021/05/05 10:26:47;;;;;;;3.93;1.60;;;14.60;79.40;;;;;;5002019;28;20457;-68
2021/05/05 10:29:14;;;;;;;2.67;1.50;;;15.20;79.30;;;;;;5008049;28;20535;-69
2021/05/05 10:31:42;;;;;;;2.00;1.33;;;15.10;75.60;;;;;;4987516;28;20906;-68
2021/05/05 10:34:16;;;;;;;2.80;1.80;;;14.90;74.50;;;;;;4987874;28;20474;-69
2021/05/05 10:36:50;;;;;;;1.87;1.27;;;14.70;75.90;;;;;;4987702;28;20950;-68
2021/05/05 10:39:35;;;;;;;2.80;1.83;;;14.50;76.40;;;;;;4991685;28;20485;-69
2021/05/05 10:42:15;;;;;;;3.90;1.73;;;14.00;75.20;;;;;;5006912;28;20465;-69
2021/05/05 10:44:47;;;;;;;3.10;1.70;;;14.00;74.80;;;;;;5007009;28;20475;-68
2021/05/05 10:47:22;;;;;;;2.57;1.70;;;14.40;74.60;;;;;;5004137;28;20486;-69
2021/05/05 10:50:13;;;;;;;2.70;1.47;;;14.30;74.40;;;;;;4998232;28;20480;-69
2021/05/05 10:53:01;;;;;;;3.00;1.43;;;13.80;76.50;;;;;;4999902;28;20462;-69
2021/05/05 10:55:54;;;;;;;1.75;1.13;;;13.10;76.00;;;;;;5001090;28;20466;-68
2021/05/05 10:58:24;;;;;;;1.95;1.10;;;12.50;76.40;;;;;;4993342;28;20290;-70
2021/05/05 11:00:56;;;;;;;2.95;1.65;;;11.80;87.60;;;;;;5005816;28;20234;-68
2021/05/05 11:03:59;;;;;;;1.55;0.90;;;10.80;92.00;;;;;;4999211;28;20257;-68
2021/05/05 11:06:57;;;;;;;0.90;0.80;;;9.70;95.90;;;;;;5006475;28;20234;-67
2021/05/05 11:09:46;;;;;;;1.42;1.20;;;8.90;99.20;;;;;;4997929;28;20590;-68
2021/05/05 11:12:41;;;;;;;2.15;1.80;;;8.40;99.90;;;;;;4999620;28;20207;-68
2021/05/05 11:15:09;;;;;;;1.20;1.00;;;8.20;99.90;;;;;;5005312;28;20282;-66
2021/05/05 11:17:35;;;;;;;2.03;1.08;;;8.00;99.90;;;;;;5006328;28;20202;-68
2021/05/05 11:20:01;;;;;;;2.20;1.23;;;7.90;99.90;;;;;;4996359;28;20218;-69
2021/05/05 11:22:46;;;;;;;2.00;1.02;;;7.70;99.90;;;;;;4996819;28;20198;-69
2021/05/05 11:25:35;;;;;;;1.70;1.20;;;7.40;99.90;;;;;;5003588;28;20568;-68
2021/05/05 11:28:01;;;;;;;1.13;1.02;;;7.40;99.90;;;;;;4999928;28;21421;-68
2021/05/05 11:30:49;;;;;;;1.42;1.00;;;7.70;99.90;;;;;;5005681;28;20224;-69
2021/05/05 11:33:16;;;;;;;1.30;1.00;;;8.00;99.90;;;;;;5001529;28;20240;-68
2021/05/05 11:35:43;;;;;;;3.38;1.20;;;8.00;99.90;;;;;;4996525;28;20229;-69
2021/05/05 11:38:19;;;;;;;2.75;1.08;;;8.00;99.90;;;;;;4989776;28;20791;-69
2021/05/05 11:41:00;;;;;;;3.40;1.05;;;8.00;99.90;;;;;;4994396;28;20222;-69
2021/05/05 11:43:29;;;;;;;1.67;1.15;;;8.00;99.90;;;;;;5004429;28;20199;-69
2021/05/05 11:45:59;;;;;;;1.52;1.00;;;8.10;99.90;;;;;;4992466;28;20268;-69
2021/05/05 11:48:38;;;;;;;4.60;1.33;;;8.80;99.90;;;;;;4993546;28;20276;-69
2021/05/05 11:51:16;;;;;;;1.38;1.00;;;9.80;99.90;;;;;;5000383;28;20218;-69
2021/05/05 11:53:43;;;;;;;2.45;1.23;;;10.50;99.90;;;;;;5006419;28;20746;-76
2021/05/05 11:56:18;;;;;;;2.40;1.40;;;10.40;99.90;;;;;;4986049;28;20362;-70
2021/05/05 11:58:57;;;;;;;3.15;1.30;;;9.90;99.90;;;;;;4985010;28;20202;-69
2021/05/05 12:01:35;;;;;;;3.83;1.30;;;9.40;99.90;;;;;;4984399;28;20309;-72
2021/05/05 12:04:15;;;;;;;4.07;1.58;;;9.30;99.90;;;;;;5000999;28;20739;-69
2021/05/05 12:06:54;;;;;;;2.45;1.02;;;9.90;99.90;;;;;;5013788;28;20198;-68
2021/05/05 12:09:24;;;;;;;2.08;1.55;;;10.70;98.00;;;;;;5001769;28;20229;-69
2021/05/05 12:12:17;;;;;;;1.50;1.40;;;11.30;96.10;;;;;;4991306;28;20590;-69
2021/05/05 12:14:46;;;;;;;1.75;1.38;;;11.50;95.00;;;;;;5002108;28;20797;-69
2021/05/05 12:17:18;;;;;;;1.58;1.30;;;11.70;95.30;;;;;;4991434;28;20199;-69
2021/05/05 12:19:55;;;;;;;1.85;1.38;;;11.70;94.40;;;;;;4994744;28;20295;-69
2021/05/05 12:22:22;;;;;;;2.05;1.20;;;11.90;95.00;;;;;;5004422;28;20698;-68
2021/05/05 12:25:07;;;;;;;3.30;2.20;;;12.00;94.20;;;;;;4999102;28;20222;-68
2021/05/05 12:27:34;;;;;;;3.55;1.35;;;11.80;95.40;;;;;;4995959;28;20219;-69
2021/05/05 12:30:01;;;;;;;2.53;1.30;;;11.80;94.30;;;;;;4992449;28;20663;-69
2021/05/05 12:32:42;;;;;;;2.72;1.42;;;11.90;94.50;;;;;;4999787;28;20211;-68
2021/05/05 12:35:10;;;;;;;1.73;1.50;;;11.80;94.60;;;;;;4983952;28;20387;-68
2021/05/05 12:37:36;;;;;;;1.80;1.50;;;11.70;93.70;;;;;;4998443;28;20213;-67
2021/05/05 12:40:04;;;;;;;1.48;1.38;;;11.40;94.00;;;;;;5003475;28;20218;-68
2021/05/05 12:42:34;;;;;;;1.63;1.30;;;11.00;92.50;;;;;;4988962;28;20202;-69
2021/05/05 12:45:12;;;;;;;1.10;1.00;;;10.60;91.00;;;;;;4996856;28;20210;-69
2021/05/05 12:47:38;;;;;;;1.20;0.90;;;10.30;91.00;;;;;;5004049;28;20399;-68
2021/05/05 12:50:06;;;;;;;1.42;1.15;;;10.10;91.40;;;;;;5007482;28;20950;-69
2021/05/05 12:52:35;;;;;;;2.78;1.45;;;9.90;93.30;;;;;;5007462;28;20240;-68
2021/05/05 12:55:21;;;;;;;1.55;1.15;;;10.30;97.40;;;;;;5005709;28;20209;-68
2021/05/05 12:58:02;;;;;;;1.00;0.90;;;11.10;96.50;;;;;;4990870;28;20614;-69
2021/05/05 13:00:29;;;;;;;2.57;1.03;;;12.10;95.90;;;;;;5003449;28;20284;-69
2021/05/05 13:03:07;;;;;;;2.13;1.20;;;12.90;95.40;;;;;;5005685;28;20477;-69
2021/05/05 13:05:53;;;;;;;1.50;1.10;;;13.70;93.50;;;;;;5005967;28;20460;-68
2021/05/05 13:08:33;;;;;;;1.10;1.00;;;14.20;93.40;;;;;;5004657;28;20524;-69